Terminal Aerodrome Forecast
Issued by NWS Amarillo, TX

Current Version | Previous Version | Text Only | Print | Product List | Glossary On
Versions: 1 2 3 4 5 6 7 8 9 10 11 12 13 14 15 16 17 18 19 20 21 22 23 24 25
000
FTUS44 KAMA 251309 AAE
TAFAMA
TAF AMD
KAMA 251309Z 2513/2612 VRB05KT 1/2SM FG VV001
     FM251330 21005KT P6SM FEW010
     FM251800 16010KT P6SM SCT040 OVC100 PROB30 2522/2604 5SM TSRA
      OVC030CB
     FM260600 14007KT P6SM SCT100 OVC300=

USA.gov is the U.S. government's official web portal to all federal, state and local government web resources and services.